sensor_id;sensor_type;location;lat;lon;timestamp;P1;durP1;ratioP1;P2;durP2;ratioP2
22234;SDS011;11286;45.596;5.284;2023-03-31T00:02:00;8.75;;;4.28;;
22234;SDS011;11286;45.596;5.284;2023-03-31T00:04:31;9.73;;;4.40;;
22234;SDS011;11286;45.596;5.284;2023-03-31T00:06:57;8.18;;;5.13;;
22234;SDS011;11286;45.596;5.284;2023-03-31T00:09:22;8.95;;;4.85;;
22234;SDS011;11286;45.596;5.284;2023-03-31T00:11:49;7.30;;;5.05;;
22234;SDS011;11286;45.596;5.284;2023-03-31T00:14:16;6.95;;;4.55;;
22234;SDS011;11286;45.596;5.284;2023-03-31T00:16:43;7.00;;;4.72;;
22234;SDS011;11286;45.596;5.284;2023-03-31T00:19:10;7.50;;;4.90;;
22234;SDS011;11286;45.596;5.284;2023-03-31T00:21:41;9.13;;;4.47;;
22234;SDS011;11286;45.596;5.284;2023-03-31T00:24:11;10.88;;;5.07;;
22234;SDS011;11286;45.596;5.284;2023-03-31T00:26:38;10.50;;;4.78;;
22234;SDS011;11286;45.596;5.284;2023-03-31T00:29:04;9.63;;;4.70;;
22234;SDS011;11286;45.596;5.284;2023-03-31T00:31:32;10.02;;;4.80;;
22234;SDS011;11286;45.596;5.284;2023-03-31T00:33:58;10.15;;;4.80;;
22234;SDS011;11286;45.596;5.284;2023-03-31T00:36:24;7.63;;;4.43;;
22234;SDS011;11286;45.596;5.284;2023-03-31T00:38:53;11.98;;;5.20;;
22234;SDS011;11286;45.596;5.284;2023-03-31T00:41:25;8.68;;;4.78;;
22234;SDS011;11286;45.596;5.284;2023-03-31T00:46:26;12.70;;;5.07;;
22234;SDS011;11286;45.596;5.284;2023-03-31T00:48:58;8.55;;;5.07;;
22234;SDS011;11286;45.596;5.284;2023-03-31T00:51:28;9.38;;;4.95;;
22234;SDS011;11286;45.596;5.284;2023-03-31T00:53:56;9.30;;;5.05;;
22234;SDS011;11286;45.596;5.284;2023-03-31T00:56:27;9.75;;;4.88;;
22234;SDS011;11286;45.596;5.284;2023-03-31T00:58:56;11.90;;;4.75;;
22234;SDS011;11286;45.596;5.284;2023-03-31T01:01:26;9.15;;;4.68;;
22234;SDS011;11286;45.596;5.284;2023-03-31T01:03:51;13.02;;;5.50;;
22234;SDS011;11286;45.596;5.284;2023-03-31T01:06:17;12.10;;;5.63;;
22234;SDS011;11286;45.596;5.284;2023-03-31T01:08:44;12.00;;;5.88;;
22234;SDS011;11286;45.596;5.284;2023-03-31T01:11:13;11.98;;;5.43;;
22234;SDS011;11286;45.596;5.284;2023-03-31T01:13:42;9.25;;;5.60;;
22234;SDS011;11286;45.596;5.284;2023-03-31T01:16:09;9.02;;;5.63;;
22234;SDS011;11286;45.596;5.284;2023-03-31T01:18:35;8.27;;;5.40;;
22234;SDS011;11286;45.596;5.284;2023-03-31T01:48:30;8.18;;;5.55;;
22234;SDS011;11286;45.596;5.284;2023-03-31T01:51:16;10.02;;;5.28;;
22234;SDS011;11286;45.596;5.284;2023-03-31T01:53:55;10.25;;;5.20;;
22234;SDS011;11286;45.596;5.284;2023-03-31T01:56:37;11.43;;;5.00;;
22234;SDS011;11286;45.596;5.284;2023-03-31T02:01:52;15.35;;;5.50;;
22234;SDS011;11286;45.596;5.284;2023-03-31T02:04:28;8.63;;;4.93;;
22234;SDS011;11286;45.596;5.284;2023-03-31T02:07:07;11.98;;;5.28;;
22234;SDS011;11286;45.596;5.284;2023-03-31T02:09:40;11.65;;;5.38;;
22234;SDS011;11286;45.596;5.284;2023-03-31T02:12:10;12.77;;;5.22;;
22234;SDS011;11286;45.596;5.284;2023-03-31T02:14:40;9.38;;;4.57;;
22234;SDS011;11286;45.596;5.284;2023-03-31T02:17:10;11.73;;;5.20;;
22234;SDS011;11286;45.596;5.284;2023-03-31T02:19:42;8.60;;;4.68;;
22234;SDS011;11286;45.596;5.284;2023-03-31T02:22:09;9.65;;;5.40;;
22234;SDS011;11286;45.596;5.284;2023-03-31T02:24:37;11.65;;;4.90;;
22234;SDS011;11286;45.596;5.284;2023-03-31T02:29:35;9.07;;;4.93;;
22234;SDS011;11286;45.596;5.284;2023-03-31T02:35:07;11.30;;;5.22;;
22234;SDS011;11286;45.596;5.284;2023-03-31T02:37:36;10.15;;;5.10;;
22234;SDS011;11286;45.596;5.284;2023-03-31T02:40:05;15.35;;;6.25;;
22234;SDS011;11286;45.596;5.284;2023-03-31T02:42:34;9.75;;;4.93;;
22234;SDS011;11286;45.596;5.284;2023-03-31T02:45:05;8.60;;;4.68;;
22234;SDS011;11286;45.596;5.284;2023-03-31T02:47:51;11.10;;;5.15;;
22234;SDS011;11286;45.596;5.284;2023-03-31T02:50:17;11.40;;;5.03;;
22234;SDS011;11286;45.596;5.284;2023-03-31T02:52:57;9.57;;;5.15;;
22234;SDS011;11286;45.596;5.284;2023-03-31T02:58:23;13.70;;;5.45;;
22234;SDS011;11286;45.596;5.284;2023-03-31T03:01:24;11.65;;;5.07;;
22234;SDS011;11286;45.596;5.284;2023-03-31T03:06:43;11.73;;;4.85;;
22234;SDS011;11286;45.596;5.284;2023-03-31T03:09:43;10.88;;;4.50;;
22234;SDS011;11286;45.596;5.284;2023-03-31T03:14:54;10.68;;;4.28;;
22234;SDS011;11286;45.596;5.284;2023-03-31T03:17:28;11.80;;;4.07;;
22234;SDS011;11286;45.596;5.284;2023-03-31T03:19:59;8.13;;;3.80;;
22234;SDS011;11286;45.596;5.284;2023-03-31T03:22:26;9.57;;;3.95;;
22234;SDS011;11286;45.596;5.284;2023-03-31T03:24:52;10.15;;;4.03;;
22234;SDS011;11286;45.596;5.284;2023-03-31T03:27:18;10.88;;;4.10;;
22234;SDS011;11286;45.596;5.284;2023-03-31T03:29:55;9.82;;;3.63;;
22234;SDS011;11286;45.596;5.284;2023-03-31T03:32:33;11.65;;;4.25;;
22234;SDS011;11286;45.596;5.284;2023-03-31T03:35:00;8.48;;;3.67;;
22234;SDS011;11286;45.596;5.284;2023-03-31T03:37:26;8.93;;;3.53;;
22234;SDS011;11286;45.596;5.284;2023-03-31T03:39:52;8.85;;;3.40;;
22234;SDS011;11286;45.596;5.284;2023-03-31T03:42:18;9.52;;;3.83;;
22234;SDS011;11286;45.596;5.284;2023-03-31T03:44:44;10.57;;;4.05;;
22234;SDS011;11286;45.596;5.284;2023-03-31T03:47:09;9.05;;;3.47;;
22234;SDS011;11286;45.596;5.284;2023-03-31T03:49:38;10.20;;;3.70;;
22234;SDS011;11286;45.596;5.284;2023-03-31T03:52:04;8.43;;;3.88;;
22234;SDS011;11286;45.596;5.284;2023-03-31T03:54:30;8.43;;;3.67;;
22234;SDS011;11286;45.596;5.284;2023-03-31T03:56:56;8.10;;;3.10;;
22234;SDS011;11286;45.596;5.284;2023-03-31T03:59:22;10.98;;;3.65;;
22234;SDS011;11286;45.596;5.284;2023-03-31T04:01:48;8.77;;;3.50;;
22234;SDS011;11286;45.596;5.284;2023-03-31T04:04:13;8.80;;;3.60;;
22234;SDS011;11286;45.596;5.284;2023-03-31T04:06:39;9.60;;;2.83;;
22234;SDS011;11286;45.596;5.284;2023-03-31T04:09:05;11.43;;;3.25;;
22234;SDS011;11286;45.596;5.284;2023-03-31T04:11:31;7.22;;;2.90;;
22234;SDS011;11286;45.596;5.284;2023-03-31T04:13:56;8.50;;;3.10;;
22234;SDS011;11286;45.596;5.284;2023-03-31T04:16:22;6.82;;;3.40;;
22234;SDS011;11286;45.596;5.284;2023-03-31T04:18:49;7.13;;;3.17;;
22234;SDS011;11286;45.596;5.284;2023-03-31T04:21:21;9.77;;;3.00;;
22234;SDS011;11286;45.596;5.284;2023-03-31T04:23:47;8.30;;;3.47;;
22234;SDS011;11286;45.596;5.284;2023-03-31T04:26:15;8.15;;;3.08;;
22234;SDS011;11286;45.596;5.284;2023-03-31T04:28:43;12.68;;;3.30;;
22234;SDS011;11286;45.596;5.284;2023-03-31T04:31:14;12.02;;;3.65;;
22234;SDS011;11286;45.596;5.284;2023-03-31T04:33:49;6.47;;;2.80;;
22234;SDS011;11286;45.596;5.284;2023-03-31T04:36:18;9.02;;;3.30;;
22234;SDS011;11286;45.596;5.284;2023-03-31T04:38:44;7.78;;;3.45;;
22234;SDS011;11286;45.596;5.284;2023-03-31T04:41:14;7.60;;;2.88;;
22234;SDS011;11286;45.596;5.284;2023-03-31T04:43:40;6.55;;;3.10;;
22234;SDS011;11286;45.596;5.284;2023-03-31T04:46:06;11.82;;;3.30;;
22234;SDS011;11286;45.596;5.284;2023-03-31T04:48:32;8.07;;;3.20;;
22234;SDS011;11286;45.596;5.284;2023-03-31T04:50:57;6.63;;;3.00;;
22234;SDS011;11286;45.596;5.284;2023-03-31T04:53:23;8.65;;;2.78;;
22234;SDS011;11286;45.596;5.284;2023-03-31T04:55:50;9.88;;;3.20;;
22234;SDS011;11286;45.596;5.284;2023-03-31T04:58:15;6.55;;;2.65;;
22234;SDS011;11286;45.596;5.284;2023-03-31T05:00:41;6.07;;;3.03;;
22234;SDS011;11286;45.596;5.284;2023-03-31T05:03:06;8.20;;;2.80;;
22234;SDS011;11286;45.596;5.284;2023-03-31T05:05:33;6.70;;;2.90;;
22234;SDS011;11286;45.596;5.284;2023-03-31T05:07:59;7.00;;;2.80;;
22234;SDS011;11286;45.596;5.284;2023-03-31T05:10:25;5.68;;;2.40;;
22234;SDS011;11286;45.596;5.284;2023-03-31T05:12:51;5.85;;;2.42;;
22234;SDS011;11286;45.596;5.284;2023-03-31T05:15:16;5.43;;;2.60;;
22234;SDS011;11286;45.596;5.284;2023-03-31T05:17:42;4.53;;;2.70;;
22234;SDS011;11286;45.596;5.284;2023-03-31T05:20:09;8.00;;;2.50;;
22234;SDS011;11286;45.596;5.284;2023-03-31T05:22:36;5.30;;;2.75;;
22234;SDS011;11286;45.596;5.284;2023-03-31T05:25:02;9.50;;;2.65;;
22234;SDS011;11286;45.596;5.284;2023-03-31T05:27:29;6.35;;;2.47;;
22234;SDS011;11286;45.596;5.284;2023-03-31T05:29:54;4.30;;;2.20;;
22234;SDS011;11286;45.596;5.284;2023-03-31T05:32:20;8.85;;;2.83;;
22234;SDS011;11286;45.596;5.284;2023-03-31T05:34:46;8.23;;;2.60;;
22234;SDS011;11286;45.596;5.284;2023-03-31T05:37:11;4.85;;;2.50;;
22234;SDS011;11286;45.596;5.284;2023-03-31T05:39:37;6.35;;;2.60;;
22234;SDS011;11286;45.596;5.284;2023-03-31T05:42:02;5.80;;;2.30;;
22234;SDS011;11286;45.596;5.284;2023-03-31T05:44:29;7.70;;;2.30;;
22234;SDS011;11286;45.596;5.284;2023-03-31T05:46:55;7.03;;;2.40;;
22234;SDS011;11286;45.596;5.284;2023-03-31T05:49:21;7.22;;;2.35;;
22234;SDS011;11286;45.596;5.284;2023-03-31T05:51:46;9.10;;;2.50;;
22234;SDS011;11286;45.596;5.284;2023-03-31T05:54:12;4.68;;;2.17;;
22234;SDS011;11286;45.596;5.284;2023-03-31T05:56:38;5.43;;;2.35;;
22234;SDS011;11286;45.596;5.284;2023-03-31T05:59:04;9.45;;;2.60;;
22234;SDS011;11286;45.596;5.284;2023-03-31T06:01:30;8.48;;;2.28;;
22234;SDS011;11286;45.596;5.284;2023-03-31T06:03:56;5.18;;;2.40;;
22234;SDS011;11286;45.596;5.284;2023-03-31T06:06:21;6.13;;;2.42;;
22234;SDS011;11286;45.596;5.284;2023-03-31T06:08:48;4.03;;;2.28;;
22234;SDS011;11286;45.596;5.284;2023-03-31T06:11:15;10.77;;;2.58;;
22234;SDS011;11286;45.596;5.284;2023-03-31T06:13:43;6.00;;;2.60;;
22234;SDS011;11286;45.596;5.284;2023-03-31T06:16:10;9.57;;;2.75;;
22234;SDS011;11286;45.596;5.284;2023-03-31T06:18:36;4.72;;;2.25;;
22234;SDS011;11286;45.596;5.284;2023-03-31T06:21:03;11.40;;;2.80;;
22234;SDS011;11286;45.596;5.284;2023-03-31T06:23:29;8.32;;;2.80;;
22234;SDS011;11286;45.596;5.284;2023-03-31T06:25:58;8.52;;;3.05;;
22234;SDS011;11286;45.596;5.284;2023-03-31T06:28:31;7.22;;;3.10;;
22234;SDS011;11286;45.596;5.284;2023-03-31T06:30:58;11.35;;;3.38;;
22234;SDS011;11286;45.596;5.284;2023-03-31T06:33:28;10.10;;;3.30;;
22234;SDS011;11286;45.596;5.284;2023-03-31T06:35:55;8.23;;;3.17;;
22234;SDS011;11286;45.596;5.284;2023-03-31T06:38:21;11.20;;;3.10;;
22234;SDS011;11286;45.596;5.284;2023-03-31T06:40:47;6.28;;;2.85;;
22234;SDS011;11286;45.596;5.284;2023-03-31T06:43:13;8.00;;;2.90;;
22234;SDS011;11286;45.596;5.284;2023-03-31T06:45:39;9.90;;;2.95;;
22234;SDS011;11286;45.596;5.284;2023-03-31T06:48:05;7.60;;;3.00;;
22234;SDS011;11286;45.596;5.284;2023-03-31T06:50:31;9.05;;;3.20;;
22234;SDS011;11286;45.596;5.284;2023-03-31T06:52:56;9.38;;;3.38;;
22234;SDS011;11286;45.596;5.284;2023-03-31T06:55:22;9.82;;;3.70;;
22234;SDS011;11286;45.596;5.284;2023-03-31T06:57:48;10.93;;;2.80;;
22234;SDS011;11286;45.596;5.284;2023-03-31T07:00:14;6.85;;;2.80;;
22234;SDS011;11286;45.596;5.284;2023-03-31T07:02:40;11.38;;;3.28;;
22234;SDS011;11286;45.596;5.284;2023-03-31T07:05:06;8.30;;;3.55;;
22234;SDS011;11286;45.596;5.284;2023-03-31T07:07:32;9.05;;;3.13;;
22234;SDS011;11286;45.596;5.284;2023-03-31T07:09:58;8.68;;;3.25;;
22234;SDS011;11286;45.596;5.284;2023-03-31T07:12:23;7.75;;;3.10;;
22234;SDS011;11286;45.596;5.284;2023-03-31T07:14:50;8.75;;;3.42;;
22234;SDS011;11286;45.596;5.284;2023-03-31T07:17:15;6.43;;;3.22;;
22234;SDS011;11286;45.596;5.284;2023-03-31T07:19:41;9.95;;;3.33;;
22234;SDS011;11286;45.596;5.284;2023-03-31T07:22:07;8.98;;;3.13;;
22234;SDS011;11286;45.596;5.284;2023-03-31T07:24:33;11.18;;;3.40;;
22234;SDS011;11286;45.596;5.284;2023-03-31T07:26:58;7.72;;;3.35;;
22234;SDS011;11286;45.596;5.284;2023-03-31T07:29:24;6.63;;;2.90;;
22234;SDS011;11286;45.596;5.284;2023-03-31T07:31:50;8.70;;;3.13;;
22234;SDS011;11286;45.596;5.284;2023-03-31T07:34:16;11.38;;;3.20;;
22234;SDS011;11286;45.596;5.284;2023-03-31T07:36:42;8.23;;;3.38;;
22234;SDS011;11286;45.596;5.284;2023-03-31T07:39:08;5.30;;;3.10;;
22234;SDS011;11286;45.596;5.284;2023-03-31T07:41:33;8.80;;;3.28;;
22234;SDS011;11286;45.596;5.284;2023-03-31T07:43:59;9.68;;;3.30;;
22234;SDS011;11286;45.596;5.284;2023-03-31T07:46:26;10.70;;;3.20;;
22234;SDS011;11286;45.596;5.284;2023-03-31T07:48:53;8.40;;;3.97;;
22234;SDS011;11286;45.596;5.284;2023-03-31T07:51:21;8.63;;;3.30;;
22234;SDS011;11286;45.596;5.284;2023-03-31T07:53:49;7.22;;;3.70;;
22234;SDS011;11286;45.596;5.284;2023-03-31T07:56:16;8.27;;;3.38;;
22234;SDS011;11286;45.596;5.284;2023-03-31T07:58:44;12.05;;;4.00;;
22234;SDS011;11286;45.596;5.284;2023-03-31T08:01:13;10.57;;;4.45;;
22234;SDS011;11286;45.596;5.284;2023-03-31T08:03:40;10.00;;;4.38;;
22234;SDS011;11286;45.596;5.284;2023-03-31T08:06:06;8.93;;;4.22;;
22234;SDS011;11286;45.596;5.284;2023-03-31T08:08:32;8.63;;;4.38;;
22234;SDS011;11286;45.596;5.284;2023-03-31T08:10:58;9.48;;;4.57;;
22234;SDS011;11286;45.596;5.284;2023-03-31T08:13:23;10.68;;;4.88;;
22234;SDS011;11286;45.596;5.284;2023-03-31T08:15:50;9.70;;;5.03;;
22234;SDS011;11286;45.596;5.284;2023-03-31T08:18:15;8.68;;;5.18;;
22234;SDS011;11286;45.596;5.284;2023-03-31T08:20:41;11.02;;;5.50;;
22234;SDS011;11286;45.596;5.284;2023-03-31T08:23:06;11.40;;;6.13;;
22234;SDS011;11286;45.596;5.284;2023-03-31T08:25:35;10.35;;;5.25;;
22234;SDS011;11286;45.596;5.284;2023-03-31T08:28:01;12.20;;;5.65;;
22234;SDS011;11286;45.596;5.284;2023-03-31T08:30:26;10.52;;;5.50;;
22234;SDS011;11286;45.596;5.284;2023-03-31T08:32:52;9.60;;;5.25;;
22234;SDS011;11286;45.596;5.284;2023-03-31T08:35:18;10.80;;;5.13;;
22234;SDS011;11286;45.596;5.284;2023-03-31T08:37:43;19.27;;;5.07;;
22234;SDS011;11286;45.596;5.284;2023-03-31T08:40:17;9.20;;;4.88;;
22234;SDS011;11286;45.596;5.284;2023-03-31T08:42:48;14.50;;;5.53;;
22234;SDS011;11286;45.596;5.284;2023-03-31T08:47:48;10.85;;;5.13;;
22234;SDS011;11286;45.596;5.284;2023-03-31T08:50:22;14.68;;;5.82;;
22234;SDS011;11286;45.596;5.284;2023-03-31T08:52:54;9.30;;;5.13;;
22234;SDS011;11286;45.596;5.284;2023-03-31T08:55:29;8.23;;;5.40;;
22234;SDS011;11286;45.596;5.284;2023-03-31T08:58:14;9.18;;;4.78;;
22234;SDS011;11286;45.596;5.284;2023-03-31T09:06:42;12.82;;;5.57;;
22234;SDS011;11286;45.596;5.284;2023-03-31T09:12:04;7.72;;;4.35;;
22234;SDS011;11286;45.596;5.284;2023-03-31T09:14:40;9.52;;;5.18;;
22234;SDS011;11286;45.596;5.284;2023-03-31T09:22:19;9.13;;;5.13;;
22234;SDS011;11286;45.596;5.284;2023-03-31T09:24:53;6.88;;;4.72;;
22234;SDS011;11286;45.596;5.284;2023-03-31T09:27:27;9.80;;;4.95;;
22234;SDS011;11286;45.596;5.284;2023-03-31T09:32:35;12.57;;;5.10;;
22234;SDS011;11286;45.596;5.284;2023-03-31T09:35:18;9.20;;;5.00;;
22234;SDS011;11286;45.596;5.284;2023-03-31T09:37:49;11.15;;;4.95;;
22234;SDS011;11286;45.596;5.284;2023-03-31T09:40:17;8.02;;;4.95;;
22234;SDS011;11286;45.596;5.284;2023-03-31T09:42:50;8.98;;;4.82;;
22234;SDS011;11286;45.596;5.284;2023-03-31T09:45:21;7.97;;;4.97;;
22234;SDS011;11286;45.596;5.284;2023-03-31T09:47:50;9.55;;;5.15;;
22234;SDS011;11286;45.596;5.284;2023-03-31T09:50:21;7.57;;;4.88;;
22234;SDS011;11286;45.596;5.284;2023-03-31T09:55:22;8.77;;;5.28;;
22234;SDS011;11286;45.596;5.284;2023-03-31T09:57:48;9.68;;;5.05;;
22234;SDS011;11286;45.596;5.284;2023-03-31T10:00:15;9.63;;;5.53;;
22234;SDS011;11286;45.596;5.284;2023-03-31T10:02:50;8.25;;;5.20;;
22234;SDS011;11286;45.596;5.284;2023-03-31T10:08:11;8.63;;;5.15;;
22234;SDS011;11286;45.596;5.284;2023-03-31T10:13:40;10.05;;;5.53;;
22234;SDS011;11286;45.596;5.284;2023-03-31T10:16:27;7.32;;;5.05;;
22234;SDS011;11286;45.596;5.284;2023-03-31T10:18:53;7.03;;;5.38;;
22234;SDS011;11286;45.596;5.284;2023-03-31T10:21:35;8.63;;;5.50;;
22234;SDS011;11286;45.596;5.284;2023-03-31T10:24:02;10.13;;;5.75;;
22234;SDS011;11286;45.596;5.284;2023-03-31T10:26:33;10.75;;;5.57;;
22234;SDS011;11286;45.596;5.284;2023-03-31T10:28:59;10.30;;;5.57;;
22234;SDS011;11286;45.596;5.284;2023-03-31T10:31:25;10.50;;;5.38;;
22234;SDS011;11286;45.596;5.284;2023-03-31T10:33:58;10.15;;;5.55;;
22234;SDS011;11286;45.596;5.284;2023-03-31T10:36:30;9.35;;;5.43;;
22234;SDS011;11286;45.596;5.284;2023-03-31T10:38:57;8.63;;;5.32;;
22234;SDS011;11286;45.596;5.284;2023-03-31T10:41:27;10.43;;;5.53;;
22234;SDS011;11286;45.596;5.284;2023-03-31T10:43:54;10.38;;;5.60;;
22234;SDS011;11286;45.596;5.284;2023-03-31T10:46:41;10.02;;;5.13;;
22234;SDS011;11286;45.596;5.284;2023-03-31T10:49:15;7.63;;;5.72;;
22234;SDS011;11286;45.596;5.284;2023-03-31T10:51:57;10.48;;;5.60;;
22234;SDS011;11286;45.596;5.284;2023-03-31T10:54:24;8.27;;;5.53;;
22234;SDS011;11286;45.596;5.284;2023-03-31T10:56:57;9.68;;;6.03;;
22234;SDS011;11286;45.596;5.284;2023-03-31T11:05:07;10.68;;;5.90;;
22234;SDS011;11286;45.596;5.284;2023-03-31T11:21:36;7.10;;;4.65;;
22234;SDS011;11286;45.596;5.284;2023-03-31T11:27:16;7.88;;;4.72;;
22234;SDS011;11286;45.596;5.284;2023-03-31T11:43:47;8.77;;;5.53;;
22234;SDS011;11286;45.596;5.284;2023-03-31T11:46:24;11.73;;;5.40;;
22234;SDS011;11286;45.596;5.284;2023-03-31T11:52:04;6.43;;;4.93;;
22234;SDS011;11286;45.596;5.284;2023-03-31T11:54:45;8.15;;;4.95;;
22234;SDS011;11286;45.596;5.284;2023-03-31T12:00:15;8.48;;;4.93;;
22234;SDS011;11286;45.596;5.284;2023-03-31T12:02:47;6.78;;;5.00;;
22234;SDS011;11286;45.596;5.284;2023-03-31T12:05:19;7.00;;;5.00;;
22234;SDS011;11286;45.596;5.284;2023-03-31T12:11:01;8.18;;;4.72;;
22234;SDS011;11286;45.596;5.284;2023-03-31T12:16:24;7.82;;;5.00;;
22234;SDS011;11286;45.596;5.284;2023-03-31T12:22:11;7.20;;;5.30;;
22234;SDS011;11286;45.596;5.284;2023-03-31T12:24:41;6.70;;;5.22;;
22234;SDS011;11286;45.596;5.284;2023-03-31T12:29:34;7.97;;;5.03;;
22234;SDS011;11286;45.596;5.284;2023-03-31T12:32:17;8.25;;;5.40;;
22234;SDS011;11286;45.596;5.284;2023-03-31T12:45:42;6.65;;;3.88;;
22234;SDS011;11286;45.596;5.284;2023-03-31T12:51:16;8.35;;;4.60;;
22234;SDS011;11286;45.596;5.284;2023-03-31T12:53:55;8.38;;;4.32;;
22234;SDS011;11286;45.596;5.284;2023-03-31T12:56:25;8.98;;;4.30;;
22234;SDS011;11286;45.596;5.284;2023-03-31T12:58:51;10.52;;;4.60;;
22234;SDS011;11286;45.596;5.284;2023-03-31T13:01:18;8.73;;;4.90;;
22234;SDS011;11286;45.596;5.284;2023-03-31T13:03:51;7.93;;;4.88;;
22234;SDS011;11286;45.596;5.284;2023-03-31T13:16:28;5.40;;;2.33;;
22234;SDS011;11286;45.596;5.284;2023-03-31T13:18:55;6.43;;;2.13;;
22234;SDS011;11286;45.596;5.284;2023-03-31T13:21:22;13.00;;;5.15;;
22234;SDS011;11286;45.596;5.284;2023-03-31T13:23:48;7.72;;;2.28;;
22234;SDS011;11286;45.596;5.284;2023-03-31T13:29:17;14.10;;;2.65;;
22234;SDS011;11286;45.596;5.284;2023-03-31T13:34:27;11.65;;;3.88;;
22234;SDS011;11286;45.596;5.284;2023-03-31T13:37:04;11.82;;;2.35;;
22234;SDS011;11286;45.596;5.284;2023-03-31T13:45:54;7.18;;;1.90;;
22234;SDS011;11286;45.596;5.284;2023-03-31T13:51:56;10.88;;;2.90;;
22234;SDS011;11286;45.596;5.284;2023-03-31T14:05:30;6.03;;;1.88;;
22234;SDS011;11286;45.596;5.284;2023-03-31T14:08:01;7.03;;;1.92;;
22234;SDS011;11286;45.596;5.284;2023-03-31T14:10:32;7.07;;;2.20;;
22234;SDS011;11286;45.596;5.284;2023-03-31T14:13:03;4.95;;;1.58;;
22234;SDS011;11286;45.596;5.284;2023-03-31T14:15:29;7.03;;;2.22;;
22234;SDS011;11286;45.596;5.284;2023-03-31T14:17:55;3.85;;;1.45;;
22234;SDS011;11286;45.596;5.284;2023-03-31T14:36:38;4.45;;;1.50;;
22234;SDS011;11286;45.596;5.284;2023-03-31T14:39:06;3.15;;;1.17;;
22234;SDS011;11286;45.596;5.284;2023-03-31T14:41:34;3.42;;;1.38;;
22234;SDS011;11286;45.596;5.284;2023-03-31T14:44:03;3.28;;;1.20;;
22234;SDS011;11286;45.596;5.284;2023-03-31T14:46:30;5.05;;;1.63;;
22234;SDS011;11286;45.596;5.284;2023-03-31T14:49:05;5.13;;;1.60;;
22234;SDS011;11286;45.596;5.284;2023-03-31T14:51:42;3.20;;;1.38;;
22234;SDS011;11286;45.596;5.284;2023-03-31T14:54:15;1.77;;;1.00;;
22234;SDS011;11286;45.596;5.284;2023-03-31T14:56:42;3.65;;;1.10;;
22234;SDS011;11286;45.596;5.284;2023-03-31T14:59:20;4.22;;;1.10;;
22234;SDS011;11286;45.596;5.284;2023-03-31T15:01:55;2.60;;;0.98;;
22234;SDS011;11286;45.596;5.284;2023-03-31T15:04:24;3.55;;;1.20;;
22234;SDS011;11286;45.596;5.284;2023-03-31T15:06:52;3.22;;;1.00;;
22234;SDS011;11286;45.596;5.284;2023-03-31T15:09:22;2.85;;;0.95;;
22234;SDS011;11286;45.596;5.284;2023-03-31T15:12:05;3.03;;;1.05;;
22234;SDS011;11286;45.596;5.284;2023-03-31T15:14:36;3.47;;;1.13;;
22234;SDS011;11286;45.596;5.284;2023-03-31T15:17:15;3.38;;;1.20;;
22234;SDS011;11286;45.596;5.284;2023-03-31T15:19:55;2.35;;;1.10;;
22234;SDS011;11286;45.596;5.284;2023-03-31T15:22:28;4.07;;;1.10;;
22234;SDS011;11286;45.596;5.284;2023-03-31T15:24:54;1.85;;;1.15;;
22234;SDS011;11286;45.596;5.284;2023-03-31T15:27:34;3.33;;;1.38;;
22234;SDS011;11286;45.596;5.284;2023-03-31T15:30:18;2.08;;;1.02;;
22234;SDS011;11286;45.596;5.284;2023-03-31T15:32:46;5.75;;;1.55;;
22234;SDS011;11286;45.596;5.284;2023-03-31T15:35:19;3.63;;;1.30;;
22234;SDS011;11286;45.596;5.284;2023-03-31T15:37:51;2.55;;;0.88;;
22234;SDS011;11286;45.596;5.284;2023-03-31T15:43:07;2.40;;;0.93;;
22234;SDS011;11286;45.596;5.284;2023-03-31T15:48:16;2.55;;;1.02;;
22234;SDS011;11286;45.596;5.284;2023-03-31T15:53:56;1.48;;;1.00;;
22234;SDS011;11286;45.596;5.284;2023-03-31T15:56:36;3.53;;;0.98;;
22234;SDS011;11286;45.596;5.284;2023-03-31T16:01:48;2.03;;;0.90;;
22234;SDS011;11286;45.596;5.284;2023-03-31T16:04:14;2.78;;;1.10;;
22234;SDS011;11286;45.596;5.284;2023-03-31T16:06:54;4.47;;;1.30;;
22234;SDS011;11286;45.596;5.284;2023-03-31T16:12:04;3.63;;;1.20;;
22234;SDS011;11286;45.596;5.284;2023-03-31T16:14:54;2.40;;;0.90;;
22234;SDS011;11286;45.596;5.284;2023-03-31T16:17:28;3.42;;;1.20;;
22234;SDS011;11286;45.596;5.284;2023-03-31T16:20:02;6.25;;;1.42;;
22234;SDS011;11286;45.596;5.284;2023-03-31T16:22:34;2.60;;;1.20;;
22234;SDS011;11286;45.596;5.284;2023-03-31T16:25:07;15.98;;;2.15;;
22234;SDS011;11286;45.596;5.284;2023-03-31T16:27:42;33.90;;;2.63;;
22234;SDS011;11286;45.596;5.284;2023-03-31T16:30:13;5.10;;;1.00;;
22234;SDS011;11286;45.596;5.284;2023-03-31T16:33:23;11.93;;;1.00;;
22234;SDS011;11286;45.596;5.284;2023-03-31T16:35:35;5.60;;;0.77;;
22234;SDS011;11286;45.596;5.284;2023-03-31T16:38:03;5.40;;;1.15;;
22234;SDS011;11286;45.596;5.284;2023-03-31T16:40:30;2.92;;;0.85;;
22234;SDS011;11286;45.596;5.284;2023-03-31T16:43:17;3.83;;;0.77;;
22234;SDS011;11286;45.596;5.284;2023-03-31T16:45:51;3.95;;;0.80;;
22234;SDS011;11286;45.596;5.284;2023-03-31T16:48:21;4.75;;;0.70;;
22234;SDS011;11286;45.596;5.284;2023-03-31T16:50:49;4.80;;;1.67;;
22234;SDS011;11286;45.596;5.284;2023-03-31T16:53:19;4.60;;;0.80;;
22234;SDS011;11286;45.596;5.284;2023-03-31T16:55:46;2.25;;;0.88;;
22234;SDS011;11286;45.596;5.284;2023-03-31T16:58:12;1.85;;;0.70;;
22234;SDS011;11286;45.596;5.284;2023-03-31T17:00:38;1.42;;;0.43;;
22234;SDS011;11286;45.596;5.284;2023-03-31T17:03:05;1.17;;;0.52;;
22234;SDS011;11286;45.596;5.284;2023-03-31T17:05:36;1.45;;;0.50;;
22234;SDS011;11286;45.596;5.284;2023-03-31T17:08:03;1.92;;;0.70;;
22234;SDS011;11286;45.596;5.284;2023-03-31T17:10:29;1.25;;;0.63;;
22234;SDS011;11286;45.596;5.284;2023-03-31T17:12:54;1.10;;;0.63;;
22234;SDS011;11286;45.596;5.284;2023-03-31T17:15:20;2.05;;;0.70;;
22234;SDS011;11286;45.596;5.284;2023-03-31T17:17:46;2.95;;;0.60;;
22234;SDS011;11286;45.596;5.284;2023-03-31T17:20:12;3.17;;;1.20;;
22234;SDS011;11286;45.596;5.284;2023-03-31T17:22:37;1.23;;;0.90;;
22234;SDS011;11286;45.596;5.284;2023-03-31T17:25:04;1.70;;;0.93;;
22234;SDS011;11286;45.596;5.284;2023-03-31T17:27:29;2.33;;;0.98;;
22234;SDS011;11286;45.596;5.284;2023-03-31T17:29:56;1.15;;;0.70;;
22234;SDS011;11286;45.596;5.284;2023-03-31T17:32:21;1.60;;;0.85;;
22234;SDS011;11286;45.596;5.284;2023-03-31T17:34:47;1.00;;;0.70;;
22234;SDS011;11286;45.596;5.284;2023-03-31T17:37:14;3.72;;;1.88;;
22234;SDS011;11286;45.596;5.284;2023-03-31T17:39:43;2.85;;;1.55;;
22234;SDS011;11286;45.596;5.284;2023-03-31T17:42:09;2.95;;;1.52;;
22234;SDS011;11286;45.596;5.284;2023-03-31T17:44:37;2.83;;;1.38;;
22234;SDS011;11286;45.596;5.284;2023-03-31T17:47:03;1.80;;;1.20;;
22234;SDS011;11286;45.596;5.284;2023-03-31T17:49:28;1.85;;;1.15;;
22234;SDS011;11286;45.596;5.284;2023-03-31T17:51:54;2.20;;;1.52;;
22234;SDS011;11286;45.596;5.284;2023-03-31T17:54:20;2.72;;;1.35;;
22234;SDS011;11286;45.596;5.284;2023-03-31T17:56:45;1.60;;;1.05;;
22234;SDS011;11286;45.596;5.284;2023-03-31T17:59:14;3.60;;;1.25;;
22234;SDS011;11286;45.596;5.284;2023-03-31T18:01:40;2.92;;;1.90;;
22234;SDS011;11286;45.596;5.284;2023-03-31T18:04:06;4.13;;;1.60;;
22234;SDS011;11286;45.596;5.284;2023-03-31T18:06:31;2.78;;;1.48;;
22234;SDS011;11286;45.596;5.284;2023-03-31T18:08:58;2.53;;;1.15;;
22234;SDS011;11286;45.596;5.284;2023-03-31T18:11:23;1.83;;;1.13;;
22234;SDS011;11286;45.596;5.284;2023-03-31T18:13:50;1.63;;;1.08;;
22234;SDS011;11286;45.596;5.284;2023-03-31T18:16:16;3.40;;;1.38;;
22234;SDS011;11286;45.596;5.284;2023-03-31T18:18:43;2.10;;;1.30;;
22234;SDS011;11286;45.596;5.284;2023-03-31T18:21:10;2.92;;;1.10;;
22234;SDS011;11286;45.596;5.284;2023-03-31T18:23:37;2.05;;;1.17;;
22234;SDS011;11286;45.596;5.284;2023-03-31T18:26:06;3.63;;;1.35;;
22234;SDS011;11286;45.596;5.284;2023-03-31T18:28:33;1.85;;;1.10;;